createdAt,value
2023-05-13T00:00:55.795Z,101336.81
2023-05-13T00:03:25.920Z,101347.56
2023-05-13T00:06:02.073Z,101334.59
2023-05-13T00:08:34.820Z,101340.13
2023-05-13T00:11:05.118Z,101330.63
2023-05-13T00:13:35.286Z,101335.56
2023-05-13T00:16:06.087Z,101327.66
2023-05-13T00:18:36.124Z,101328.91
2023-05-13T00:21:06.399Z,101333.81
2023-05-13T00:23:39.178Z,101336.94
2023-05-13T00:26:09.268Z,101335.63
2023-05-13T00:28:39.619Z,101336.38
2023-05-13T00:31:10.231Z,101345.44
2023-05-13T00:33:40.551Z,101345.31
2023-05-13T00:36:12.658Z,101327.81
2023-05-13T00:38:45.908Z,101349.22
2023-05-13T00:41:16.075Z,101345.91
2023-05-13T00:43:46.186Z,101341.75
2023-05-13T00:46:18.050Z,101342.94
2023-05-13T00:48:48.653Z,101352.31
2023-05-13T00:51:19.225Z,101350.66
2023-05-13T00:53:53.665Z,101353.19
2023-05-13T00:56:24.577Z,101354.53
2023-05-13T00:58:55.018Z,101355.31
2023-05-13T01:01:34.258Z,101351.88
2023-05-13T01:04:13.091Z,101350.25
2023-05-13T01:06:52.630Z,101358.28
2023-05-13T01:09:35.997Z,101355.44
2023-05-13T01:12:11.848Z,101361.41
2023-05-13T01:14:48.336Z,101355.19
2023-05-13T01:17:24.257Z,101363.53
2023-05-13T01:19:59.834Z,101359.06
2023-05-13T01:22:33.206Z,101358.94
2023-05-13T01:25:03.893Z,101358.94
2023-05-13T01:27:38.150Z,101357.59
2023-05-13T01:30:11.263Z,101358.22
2023-05-13T01:32:41.843Z,101357.91
2023-05-13T01:35:13.945Z,101357.63
2023-05-13T01:37:51.220Z,101365.78
2023-05-13T01:40:32.528Z,101367.00
2023-05-13T01:43:09.258Z,101364.16
2023-05-13T01:45:40.028Z,101370.72
2023-05-13T01:48:10.357Z,101363.63
2023-05-13T01:50:47.616Z,101356.75
2023-05-13T01:53:20.624Z,101365.69
2023-05-13T01:55:53.380Z,101360.31
2023-05-13T01:58:24.693Z,101364.78
2023-05-13T02:00:54.903Z,101367.13
2023-05-13T02:03:25.330Z,101360.75
2023-05-13T02:05:58.168Z,101360.91
2023-05-13T02:08:34.268Z,101362.84
2023-05-13T02:11:04.889Z,101355.44
2023-05-13T02:13:35.102Z,101358.81
2023-05-13T02:16:05.756Z,101368.78
2023-05-13T02:18:36.012Z,101364.50
2023-05-13T02:21:08.410Z,101363.59
2023-05-13T02:23:41.583Z,101360.59
2023-05-13T02:26:15.002Z,101366.56
2023-05-13T02:28:44.956Z,101358.53
2023-05-13T02:31:16.549Z,101364.16
2023-05-13T02:33:47.351Z,101363.88
2023-05-13T02:36:17.820Z,101361.94
2023-05-13T02:38:50.892Z,101364.19
2023-05-13T02:41:20.991Z,101362.38
2023-05-13T02:43:52.507Z,101361.94
2023-05-13T02:46:22.641Z,101368.47
2023-05-13T02:48:52.749Z,101365.03
2023-05-13T02:51:22.925Z,101332.06
2023-05-13T02:53:55.582Z,101369.19
2023-05-13T02:56:26.307Z,101367.25
2023-05-13T02:58:56.463Z,101366.53
2023-05-13T03:01:26.864Z,101365.91
2023-05-13T03:03:57.136Z,101367.97
2023-05-13T03:06:31.854Z,101360.69
2023-05-13T03:09:04.566Z,101362.31
2023-05-13T03:11:38.047Z,101366.16
2023-05-13T03:14:08.947Z,101370.59
2023-05-13T03:16:45.064Z,101384.25
2023-05-13T03:19:17.851Z,101376.53
2023-05-13T03:21:52.167Z,101372.53
2023-05-13T03:24:27.301Z,101377.09
2023-05-13T03:27:01.055Z,101377.00
2023-05-13T03:29:32.175Z,101379.25
2023-05-13T03:32:08.203Z,101384.56
2023-05-13T03:34:38.503Z,101380.09
2023-05-13T03:37:09.081Z,101386.63
2023-05-13T03:39:42.901Z,101389.00
2023-05-13T03:42:13.245Z,101387.19
2023-05-13T03:44:43.541Z,101381.56
2023-05-13T03:47:14.981Z,101383.63
2023-05-13T03:49:45.116Z,101395.81
2023-05-13T03:52:18.306Z,101390.34
2023-05-13T03:54:56.906Z,101399.09
2023-05-13T03:57:27.000Z,101401.03
2023-05-13T03:59:58.230Z,101403.56
2023-05-13T04:02:29.094Z,101405.47
2023-05-13T04:04:59.509Z,101395.72
2023-05-13T04:07:29.672Z,101396.19
2023-05-13T04:10:02.446Z,101407.47
2023-05-13T04:12:33.854Z,101402.09
2023-05-13T04:15:04.212Z,101410.16
2023-05-13T04:17:34.534Z,101399.88
2023-05-13T04:20:04.863Z,101407.16
2023-05-13T04:22:35.090Z,101409.94
2023-05-13T04:25:10.361Z,101389.00
2023-05-13T04:27:40.550Z,101403.44
2023-05-13T04:30:16.944Z,101399.78
2023-05-13T04:32:49.179Z,101401.53
2023-05-13T04:35:19.749Z,101401.53
2023-05-13T04:37:55.121Z,101413.59
2023-05-13T04:40:27.989Z,101411.81
2023-05-13T04:43:03.123Z,101404.41
2023-05-13T04:45:38.764Z,101410.84
2023-05-13T04:48:14.571Z,101409.34
2023-05-13T04:50:48.445Z,101407.59
2023-05-13T04:53:20.574Z,101407.88
2023-05-13T04:56:01.996Z,101414.44
2023-05-13T04:58:35.784Z,101410.88
2023-05-13T05:01:05.825Z,101409.06
2023-05-13T05:03:39.084Z,101421.97
2023-05-13T05:06:09.602Z,101415.66
2023-05-13T05:08:39.730Z,101413.00
2023-05-13T05:11:15.120Z,101420.34
2023-05-13T05:13:45.458Z,101410.91
2023-05-13T05:16:15.583Z,101412.72
2023-05-13T05:18:46.265Z,101416.28
2023-05-13T05:21:18.324Z,101402.22
2023-05-13T05:23:48.704Z,101423.94
2023-05-13T05:26:22.528Z,101413.41
2023-05-13T05:28:53.085Z,101405.50
2023-05-13T05:31:23.421Z,101424.25
2023-05-13T05:33:55.303Z,101425.78
2023-05-13T05:36:25.536Z,101425.25
2023-05-13T05:38:55.711Z,101426.34
2023-05-13T05:41:34.452Z,101423.56
2023-05-13T05:44:04.588Z,101432.63
2023-05-13T05:46:36.661Z,101406.38
2023-05-13T05:49:08.460Z,101423.50
2023-05-13T05:51:39.708Z,101425.41
2023-05-13T05:54:11.280Z,101427.78
2023-05-13T05:56:44.675Z,101427.28
2023-05-13T05:59:14.732Z,101426.78
2023-05-13T06:01:44.829Z,101429.09
2023-05-13T06:04:15.067Z,101424.84
2023-05-13T06:06:45.522Z,101416.47
2023-05-13T06:09:15.704Z,101419.16
2023-05-13T06:11:48.498Z,101415.91
2023-05-13T06:14:19.938Z,101423.09
2023-05-13T06:16:49.872Z,101426.16
2023-05-13T06:19:20.030Z,101426.56
2023-05-13T06:21:50.409Z,101413.88
2023-05-13T06:24:20.537Z,101403.03
2023-05-13T06:26:53.397Z,101418.19
2023-05-13T06:29:23.571Z,101419.28
2023-05-13T06:31:53.566Z,101427.63
2023-05-13T06:34:24.091Z,101430.72
2023-05-13T06:36:54.128Z,101424.38
2023-05-13T06:39:24.171Z,101426.19
2023-05-13T06:41:59.816Z,101433.22
2023-05-13T06:44:40.752Z,101429.06
2023-05-13T06:47:15.002Z,101438.09
2023-05-13T06:49:46.999Z,101435.28
2023-05-13T06:52:18.852Z,101430.03
2023-05-13T06:54:57.612Z,101434.50
2023-05-13T06:57:41.951Z,101430.63
2023-05-13T07:00:14.533Z,101434.22
2023-05-13T07:02:45.779Z,101427.88
2023-05-13T07:05:16.055Z,101429.59
2023-05-13T07:07:46.274Z,101440.25
2023-05-13T07:10:16.500Z,101435.84
2023-05-13T07:12:51.991Z,101425.13
2023-05-13T07:15:27.034Z,101420.81
2023-05-13T07:17:57.152Z,101425.97
2023-05-13T07:20:27.343Z,101430.94
2023-05-13T07:22:57.518Z,101429.56
2023-05-13T07:25:28.181Z,101426.00
2023-05-13T07:28:00.853Z,101431.09
2023-05-13T07:30:34.045Z,101421.81
2023-05-13T07:33:06.090Z,101420.28
2023-05-13T07:35:37.711Z,101423.16
2023-05-13T07:38:07.877Z,101417.03
2023-05-13T07:40:37.943Z,101424.47
2023-05-13T07:43:10.631Z,101418.88
2023-05-13T07:45:41.448Z,101415.63
2023-05-13T07:48:13.536Z,101418.19
2023-05-13T07:50:44.505Z,101423.97
2023-05-13T07:53:14.767Z,101414.84
2023-05-13T07:55:45.082Z,101416.72
2023-05-13T07:58:18.774Z,101415.91
2023-05-13T08:00:49.659Z,101398.16
2023-05-13T08:03:22.254Z,101412.34
2023-05-13T08:05:52.288Z,101412.13
2023-05-13T08:08:26.581Z,101422.44
2023-05-13T08:10:56.678Z,101394.81
2023-05-13T08:13:29.424Z,101421.25
2023-05-13T08:15:59.478Z,101416.88
2023-05-13T08:18:29.780Z,101414.09
2023-05-13T08:21:00.398Z,101414.91
2023-05-13T08:23:44.173Z,101417.59
2023-05-13T08:26:16.586Z,101409.16
2023-05-13T08:28:51.067Z,101417.69
2023-05-13T08:31:25.278Z,101416.81
2023-05-13T08:33:55.657Z,101418.72
2023-05-13T08:36:28.888Z,101396.97
2023-05-13T08:38:58.868Z,101414.19
2023-05-13T08:41:38.482Z,101409.97
2023-05-13T08:44:12.620Z,101424.31
2023-05-13T08:46:47.633Z,101419.84
2023-05-13T08:49:17.784Z,101433.41
2023-05-13T08:51:51.566Z,101429.59
2023-05-13T08:54:24.010Z,101427.59
2023-05-13T08:56:54.376Z,101409.75
2023-05-13T08:59:27.214Z,101430.84
2023-05-13T09:01:57.854Z,101425.84
2023-05-13T09:04:28.908Z,101427.09
2023-05-13T09:06:59.351Z,101433.19
2023-05-13T09:09:29.409Z,101421.41
2023-05-13T09:11:59.451Z,101420.84
2023-05-13T09:14:35.368Z,101398.34
2023-05-13T09:17:08.074Z,101427.81
2023-05-13T09:19:39.197Z,101417.81
2023-05-13T09:22:20.302Z,101417.63
2023-05-13T09:24:56.789Z,101420.66
2023-05-13T09:27:40.295Z,101417.88
2023-05-13T09:30:14.306Z,101416.44
2023-05-13T09:32:45.055Z,101411.75
2023-05-13T09:35:20.692Z,101404.69
2023-05-13T09:37:52.095Z,101387.69
2023-05-13T09:40:22.712Z,101411.25
2023-05-13T09:42:53.389Z,101416.66
2023-05-13T09:45:29.104Z,101406.59
2023-05-13T09:47:59.358Z,101409.56
2023-05-13T09:50:30.189Z,101403.84
2023-05-13T09:53:00.444Z,101415.97
2023-05-13T09:55:34.176Z,101408.84
2023-05-13T09:58:04.276Z,101397.75
2023-05-13T10:00:39.431Z,101408.50
2023-05-13T10:03:10.920Z,101407.53
2023-05-13T10:05:42.466Z,101408.59
2023-05-13T10:08:14.076Z,101414.13
2023-05-13T10:10:48.781Z,101401.78
2023-05-13T10:13:27.395Z,101416.50
2023-05-13T10:16:01.363Z,101408.56
2023-05-13T10:18:37.226Z,101414.31
2023-05-13T10:21:08.527Z,101417.50
2023-05-13T10:23:39.290Z,101405.31
2023-05-13T10:26:09.721Z,101406.78
2023-05-13T10:28:41.238Z,101392.00
2023-05-13T10:31:13.844Z,101401.84
2023-05-13T10:33:45.485Z,101408.34
2023-05-13T10:36:37.920Z,101402.91
2023-05-13T10:39:31.590Z,101408.94
2023-05-13T10:42:37.256Z,101405.28
2023-05-13T10:45:08.214Z,101409.22
2023-05-13T10:47:41.379Z,101391.28
2023-05-13T10:50:27.635Z,101404.19
2023-05-13T10:53:03.772Z,101399.59
2023-05-13T10:55:42.436Z,101387.28
2023-05-13T10:58:15.146Z,101394.56
2023-05-13T11:00:46.425Z,101393.34
2023-05-13T11:03:31.675Z,101403.38
2023-05-13T11:06:07.097Z,101400.13
2023-05-13T11:08:41.588Z,101394.88
2023-05-13T11:11:27.203Z,101388.50
2023-05-13T11:13:58.459Z,101383.69
2023-05-13T11:16:30.295Z,101386.03
2023-05-13T11:19:05.305Z,101390.72
2023-05-13T11:21:39.834Z,101388.91
2023-05-13T11:24:10.740Z,101389.38
2023-05-13T11:26:49.200Z,101400.00
2023-05-13T11:29:31.060Z,101381.41
2023-05-13T11:32:12.783Z,101386.75
2023-05-13T11:34:53.875Z,101390.47
2023-05-13T11:37:24.585Z,101387.09
2023-05-13T11:39:55.339Z,101387.31
2023-05-13T11:42:26.644Z,101383.34
2023-05-13T11:44:57.504Z,101381.56
2023-05-13T11:47:34.501Z,101378.34
2023-05-13T11:50:21.374Z,101381.25
2023-05-13T11:53:13.922Z,101384.22
2023-05-13T11:55:45.340Z,101382.22
2023-05-13T11:58:19.100Z,101371.91
2023-05-13T12:00:52.920Z,101348.75
2023-05-13T12:03:24.550Z,101385.66
2023-05-13T12:06:06.805Z,101376.53
2023-05-13T12:08:37.066Z,101385.97
2023-05-13T12:11:10.323Z,101375.47
2023-05-13T12:13:40.509Z,101375.25
2023-05-13T12:16:11.579Z,101376.66
2023-05-13T12:18:41.602Z,101361.22
2023-05-13T12:21:24.425Z,101344.91
2023-05-13T12:23:54.429Z,101371.47
2023-05-13T12:26:24.655Z,101372.78
2023-05-13T12:29:02.598Z,101372.31
2023-05-13T12:31:32.874Z,101357.91
2023-05-13T12:34:02.994Z,101381.88
2023-05-13T12:36:50.846Z,101367.25
2023-05-13T12:39:24.173Z,101372.00
2023-05-13T12:41:55.012Z,101372.38
2023-05-13T12:44:30.127Z,101366.34
2023-05-13T12:47:02.737Z,101367.81
2023-05-13T12:49:33.492Z,101366.47
2023-05-13T12:52:06.322Z,101364.53
2023-05-13T12:54:36.470Z,101368.97
2023-05-13T12:57:25.636Z,101370.28
2023-05-13T12:59:56.338Z,101367.94
2023-05-13T13:02:49.645Z,101358.53
2023-05-13T13:05:21.079Z,101361.59
2023-05-13T13:07:54.669Z,101347.00
2023-05-13T13:10:25.423Z,101371.22
2023-05-13T13:12:56.509Z,101367.00
2023-05-13T13:15:28.729Z,101365.03
2023-05-13T13:17:59.279Z,101366.03
2023-05-13T13:20:33.075Z,101362.72
2023-05-13T13:23:10.195Z,101358.88
2023-05-13T13:25:41.517Z,101353.28
2023-05-13T13:28:12.050Z,101345.19
2023-05-13T13:30:46.967Z,101341.41
2023-05-13T13:33:26.529Z,101345.72
2023-05-13T13:35:57.185Z,101334.78
2023-05-13T13:38:30.414Z,101341.25
2023-05-13T13:41:01.002Z,101345.97
2023-05-13T13:43:31.870Z,101348.84
2023-05-13T13:46:02.506Z,101340.84
2023-05-13T13:48:39.682Z,101335.06
2023-05-13T13:51:13.396Z,101338.09
2023-05-13T13:53:46.530Z,101340.84
2023-05-13T13:56:24.672Z,101331.97
2023-05-13T13:58:55.418Z,101327.56
2023-05-13T14:01:26.577Z,101332.00
2023-05-13T14:04:19.965Z,101326.00
2023-05-13T14:06:50.212Z,101327.44
2023-05-13T14:09:28.410Z,101325.91
2023-05-13T14:11:58.918Z,101329.22
2023-05-13T14:14:29.673Z,101316.63
2023-05-13T14:17:02.699Z,101323.88
2023-05-13T14:19:36.121Z,101317.69
2023-05-13T14:22:19.427Z,101318.75
2023-05-13T14:24:54.043Z,101318.91
2023-05-13T14:27:24.961Z,101311.34
2023-05-13T14:29:57.597Z,101321.25
2023-05-13T14:32:29.805Z,101322.72
2023-05-13T14:35:02.895Z,101312.25
2023-05-13T14:37:35.913Z,101304.44
2023-05-13T14:40:12.473Z,101304.66
2023-05-13T14:42:43.183Z,101306.25
2023-05-13T14:45:19.900Z,101296.31
2023-05-13T14:47:54.165Z,101302.53
2023-05-13T14:50:27.423Z,101310.56
2023-05-13T14:53:05.370Z,101308.25
2023-05-13T14:55:38.731Z,101308.94
2023-05-13T14:58:10.049Z,101306.75
2023-05-13T15:00:42.583Z,101306.13
2023-05-13T15:03:14.343Z,101299.91
2023-05-13T15:05:45.750Z,101305.59
2023-05-13T15:08:16.894Z,101291.00
2023-05-13T15:10:51.223Z,101304.50
2023-05-13T15:13:21.802Z,101303.53
2023-05-13T15:16:11.161Z,101300.09
2023-05-13T15:18:44.711Z,101295.84
2023-05-13T15:21:15.399Z,101296.13
2023-05-13T15:23:45.970Z,101297.03
2023-05-13T15:26:20.282Z,101289.56
2023-05-13T15:28:51.563Z,101280.66
2023-05-13T15:31:22.727Z,101299.56
2023-05-13T15:33:53.565Z,101294.63
2023-05-13T15:36:27.654Z,101292.28
2023-05-13T15:39:11.247Z,101280.75
2023-05-13T15:41:46.611Z,101259.59
2023-05-13T15:44:17.168Z,101274.72
2023-05-13T15:46:50.644Z,101288.19
2023-05-13T15:49:33.801Z,101270.81
2023-05-13T15:52:07.256Z,101277.19
2023-05-13T15:54:39.502Z,101281.34
2023-05-13T15:57:12.720Z,101283.00
2023-05-13T15:59:45.707Z,101285.84
2023-05-13T16:02:18.464Z,101282.63
2023-05-13T16:04:49.153Z,101280.97
2023-05-13T16:07:19.697Z,101278.25
2023-05-13T16:09:50.348Z,101268.31
2023-05-13T16:12:23.694Z,101271.97
2023-05-13T16:14:55.078Z,101271.16
2023-05-13T16:17:26.753Z,101259.84
2023-05-13T16:19:57.572Z,101267.91
2023-05-13T16:22:30.560Z,101261.25
2023-05-13T16:25:05.802Z,101275.50
2023-05-13T16:27:48.119Z,101254.72
2023-05-13T16:30:19.251Z,101269.22
2023-05-13T16:32:53.509Z,101242.41
2023-05-13T16:35:27.150Z,101277.97
2023-05-13T16:37:57.856Z,101274.25
2023-05-13T16:40:36.346Z,101271.59
2023-05-13T16:43:09.861Z,101264.78
2023-05-13T16:45:43.071Z,101270.00
2023-05-13T16:48:16.206Z,101264.28
2023-05-13T16:50:57.728Z,101260.91
2023-05-13T16:53:31.632Z,101262.94
2023-05-13T16:56:02.536Z,101270.38
2023-05-13T16:58:43.203Z,101245.59
2023-05-13T17:01:14.919Z,101259.03
2023-05-13T17:03:47.730Z,101263.91
2023-05-13T17:06:20.235Z,101267.69
2023-05-13T17:08:54.117Z,101249.34
2023-05-13T17:11:24.687Z,101260.78
2023-05-13T17:14:00.583Z,101258.28
2023-05-13T17:16:37.366Z,101250.56
2023-05-13T17:19:08.170Z,101256.97
2023-05-13T17:21:38.925Z,101251.28
2023-05-13T17:24:11.387Z,101244.78
2023-05-13T17:26:42.241Z,101257.00
2023-05-13T17:29:33.316Z,101253.16
2023-05-13T17:32:04.299Z,101244.22
2023-05-13T17:34:42.905Z,101248.34
2023-05-13T17:37:13.661Z,101247.16
2023-05-13T17:39:47.802Z,101244.41
2023-05-13T17:42:20.612Z,101240.97
2023-05-13T17:44:53.869Z,101243.13
2023-05-13T17:47:24.631Z,101249.81
2023-05-13T17:50:01.402Z,101250.63
2023-05-13T17:52:32.003Z,101246.00
2023-05-13T17:55:05.355Z,101253.47
2023-05-13T17:57:36.031Z,101249.56
2023-05-13T18:00:10.692Z,101255.34
2023-05-13T18:02:41.288Z,101258.69
2023-05-13T18:05:29.452Z,101261.03
2023-05-13T18:08:16.319Z,101257.31
2023-05-13T18:10:46.977Z,101262.03
2023-05-13T18:13:20.528Z,101254.03
2023-05-13T18:15:54.372Z,101262.69
2023-05-13T18:18:28.934Z,101264.06
2023-05-13T18:21:00.204Z,101258.50
2023-05-13T18:23:34.780Z,101263.53
2023-05-13T18:26:05.388Z,101266.75
2023-05-13T18:28:38.791Z,101260.66
2023-05-13T18:31:12.174Z,101263.13
2023-05-13T18:33:46.647Z,101264.50
2023-05-13T18:36:28.972Z,101265.25
2023-05-13T18:38:59.539Z,101268.31
2023-05-13T18:41:33.298Z,101269.56
2023-05-13T18:44:05.684Z,101273.56
2023-05-13T18:46:41.141Z,101269.72
2023-05-13T18:49:11.641Z,101268.41
2023-05-13T18:51:42.207Z,101275.00
2023-05-13T18:54:14.714Z,101281.38
2023-05-13T18:56:49.755Z,101280.03
2023-05-13T18:59:31.612Z,101285.53
2023-05-13T19:02:06.500Z,101271.22
2023-05-13T19:04:41.667Z,101280.88
2023-05-13T19:07:14.667Z,101284.75
2023-05-13T19:09:45.540Z,101280.13
2023-05-13T19:12:16.214Z,101290.13
2023-05-13T19:14:46.785Z,101286.69
2023-05-13T19:17:20.183Z,101286.94
2023-05-13T19:19:51.164Z,101283.31
2023-05-13T19:22:21.847Z,101290.84
2023-05-13T19:24:52.466Z,101296.59
2023-05-13T19:27:32.201Z,101290.84
2023-05-13T19:30:02.814Z,101297.03
2023-05-13T19:32:37.707Z,101292.91
2023-05-13T19:35:09.897Z,101299.78
2023-05-13T19:37:40.887Z,101308.41
2023-05-13T19:40:13.496Z,101296.63
2023-05-13T19:42:44.148Z,101295.81
2023-05-13T19:45:21.738Z,101300.31
2023-05-13T19:47:54.844Z,101294.53
2023-05-13T19:50:25.722Z,101296.63
2023-05-13T19:52:57.903Z,101308.34
2023-05-13T19:55:30.519Z,101301.00
2023-05-13T19:58:01.142Z,101292.78
2023-05-13T20:00:31.740Z,101295.63
2023-05-13T20:03:09.121Z,101299.59
2023-05-13T20:05:39.839Z,101307.59
2023-05-13T20:08:10.906Z,101293.81
2023-05-13T20:10:44.209Z,101307.31
2023-05-13T20:13:15.098Z,101304.91
2023-05-13T20:15:47.965Z,101307.88
2023-05-13T20:18:22.734Z,101301.53
2023-05-13T20:20:53.928Z,101305.63
2023-05-13T20:23:24.471Z,101305.41
2023-05-13T20:25:56.999Z,101302.59
2023-05-13T20:28:44.461Z,101301.34
2023-05-13T20:31:15.061Z,101289.03
2023-05-13T20:33:58.165Z,101297.19
2023-05-13T20:36:28.753Z,101304.19
2023-05-13T20:38:59.293Z,101299.63
2023-05-13T20:41:29.864Z,101287.34
2023-05-13T20:44:03.220Z,101293.56
2023-05-13T20:46:33.817Z,101300.69
2023-05-13T20:49:07.601Z,101292.59
2023-05-13T20:51:42.494Z,101286.06
2023-05-13T20:54:13.986Z,101297.13
2023-05-13T20:56:46.842Z,101278.22
2023-05-13T20:59:20.155Z,101299.28
2023-05-13T21:01:50.951Z,101302.09
2023-05-13T21:04:25.566Z,101300.47
2023-05-13T21:06:56.314Z,101301.88
2023-05-13T21:09:28.793Z,101295.38
2023-05-13T21:11:59.434Z,101298.66
2023-05-13T21:14:30.029Z,101304.63
2023-05-13T21:17:03.306Z,101301.22
2023-05-13T21:19:41.150Z,101303.28
2023-05-13T21:22:14.436Z,101303.78
2023-05-13T21:24:47.330Z,101307.56
2023-05-13T21:27:19.014Z,101304.53
2023-05-13T21:29:49.571Z,101294.88
2023-05-13T21:32:20.097Z,101302.09
2023-05-13T21:34:53.408Z,101297.41
2023-05-13T21:37:23.939Z,101310.72
2023-05-13T21:39:54.630Z,101301.22
2023-05-13T21:42:25.217Z,101298.91
2023-05-13T21:44:57.069Z,101301.81
2023-05-13T21:47:30.087Z,101297.25
2023-05-13T21:50:03.506Z,101299.41
2023-05-13T21:52:37.963Z,101299.00
2023-05-13T21:55:09.947Z,101301.81
2023-05-13T21:57:40.878Z,101302.41
2023-05-13T22:00:15.350Z,101297.09
2023-05-13T22:02:51.505Z,101299.19
2023-05-13T22:05:25.546Z,101304.28
2023-05-13T22:08:00.446Z,101306.69
2023-05-13T22:10:33.485Z,101306.81
2023-05-13T22:13:04.085Z,101281.78
2023-05-13T22:15:34.865Z,101312.25
2023-05-13T22:18:05.491Z,101311.09
2023-05-13T22:20:48.408Z,101300.53
2023-05-13T22:23:19.034Z,101314.63
2023-05-13T22:25:50.131Z,101321.84
2023-05-13T22:28:22.712Z,101321.44
2023-05-13T22:30:55.473Z,101312.13
2023-05-13T22:33:26.237Z,101312.88
2023-05-13T22:36:00.850Z,101321.13
2023-05-13T22:38:31.619Z,101317.28
2023-05-13T22:41:03.988Z,101327.16
2023-05-13T22:43:35.339Z,101317.63
2023-05-13T22:46:07.443Z,101324.84
2023-05-13T22:48:40.706Z,101325.03
2023-05-13T22:51:13.885Z,101322.13
2023-05-13T22:53:44.604Z,101319.94
2023-05-13T22:56:16.014Z,101323.22
2023-05-13T22:58:46.589Z,101319.53
2023-05-13T23:01:19.041Z,101324.34
2023-05-13T23:03:49.574Z,101320.78
2023-05-13T23:06:24.738Z,101323.00
2023-05-13T23:08:56.100Z,101320.22
2023-05-13T23:11:26.678Z,101320.69
2023-05-13T23:14:01.684Z,101326.25
2023-05-13T23:16:32.480Z,101321.50
2023-05-13T23:19:04.107Z,101317.25
2023-05-13T23:21:37.356Z,101325.16
2023-05-13T23:24:08.371Z,101329.63
2023-05-13T23:26:39.010Z,101320.56
2023-05-13T23:29:10.927Z,101323.31
2023-05-13T23:31:43.065Z,101325.72
2023-05-13T23:34:13.934Z,101325.41
2023-05-13T23:36:47.168Z,101323.34
2023-05-13T23:39:17.714Z,101319.53
2023-05-13T23:41:48.357Z,101313.28
2023-05-13T23:44:23.330Z,101310.47
2023-05-13T23:46:54.158Z,101306.75
2023-05-13T23:49:27.402Z,101314.22
2023-05-13T23:52:00.602Z,101312.03
2023-05-13T23:54:35.175Z,101306.53
2023-05-13T23:57:06.078Z,101298.66
2023-05-13T23:59:36.720Z,101311.59
